Kualapuu, Hawaii
Current Conditions -  °F | °C
As of 4:54 PM on Monday 20 Oct 2014 (Local Time) from PHMK Reporting Station
Scattered Clouds Scattered Clouds  
Wind Chill: 80°   Ceiling: Unl
Heat Index: 85°   Visibility: 10mi
Dew Point: 74°   Wind: 16mph
Humidity: 81%   Direction: 50°NE
Pressure: 29.95"   Gusts: 29mph
Location:  21.15°N, 157.03°W
Report Text: PHMK 210254Z 05014G25KT 10SM FEW030 SCT045 27/23 A2995 RMK AO2 PK WND 04026/0209 SLP142 P0001 60002 T02670233 55003 $
Loading
Personal Weather Stations






























Interactive Weather Map
Tropical Storm Tracking
New forecast layout! Learn more

10-Day Weather Forecast

Advertisements
Track Severe Weather on mobile